Time;durP1;ratioP1;P1;durP2;ratioP2;P2;SDS_P1;SDS_P2;PMS_P1;PMS_P2;Temp;Humidity;BMP_temperature;BMP_pressure;BME280_temperature;BME280_humidity;BME280_pressure;Samples;Min_cycle;Max_cycle;Signal;HPM_P1;HPM_P2
2021/03/01 00:02:13;;;;;;;16.60;15.10;;;;;;;;;;5116201;28;20457;-9
2021/03/01 00:04:41;;;;;;;18.23;16.27;;;;;;;;;;5117302;28;20491;-10
2021/03/01 00:07:09;;;;;;;16.17;14.63;;;;;;;;;;5116734;28;20431;-9
2021/03/01 00:09:38;;;;;;;16.30;14.60;;;;;;;;;;5116333;28;20463;-10
2021/03/01 00:12:07;;;;;;;16.87;15.23;;;;;;;;;;5115232;28;20581;-10
2021/03/01 00:14:35;;;;;;;17.57;15.77;;;;;;;;;;5116434;28;20471;-10
2021/03/01 00:17:03;;;;;;;16.37;14.40;;;;;;;;;;5117470;28;20423;-10
2021/03/01 00:19:32;;;;;;;18.77;16.87;;;;;;;;;;5117708;28;20436;-10
2021/03/01 00:22:00;;;;;;;16.10;14.53;;;;;;;;;;5117340;28;20872;-10
2021/03/01 00:24:29;;;;;;;21.40;16.63;;;;;;;;;;5117161;28;20720;-10
2021/03/01 00:26:56;;;;;;;20.43;15.80;;;;;;;;;;5118123;28;20454;-10
2021/03/01 00:29:25;;;;;;;17.27;15.47;;;;;;;;;;5116323;28;20439;-10
2021/03/01 00:31:53;;;;;;;16.00;14.40;;;;;;;;;;5116397;28;20439;-10
2021/03/01 00:34:22;;;;;;;16.20;14.73;;;;;;;;;;5116363;28;20748;-9
2021/03/01 00:36:51;;;;;;;18.23;15.60;;;;;;;;;;5115636;28;20735;-9
2021/03/01 00:39:19;;;;;;;19.37;15.77;;;;;;;;;;5117186;28;20439;-10
2021/03/01 00:41:46;;;;;;;16.43;14.83;;;;;;;;;;5116585;28;20481;-9
2021/03/01 00:44:15;;;;;;;14.90;13.53;;;;;;;;;;5115682;28;20435;-9
2021/03/01 00:46:43;;;;;;;16.80;15.20;;;;;;;;;;5116162;28;20525;-10
2021/03/01 00:49:11;;;;;;;16.50;14.77;;;;;;;;;;5105636;28;20468;-9
2021/03/01 00:51:39;;;;;;;16.80;15.30;;;;;;;;;;5096193;28;20432;-10
2021/03/01 00:54:08;;;;;;;16.50;14.67;;;;;;;;;;5095094;28;20479;-9
2021/03/01 00:56:49;;;;;;;16.93;15.43;;;;;;;;;;5096286;28;20511;-10
2021/03/01 00:59:18;;;;;;;16.80;15.00;;;;;;;;;;5096453;28;20814;-9
2021/03/01 01:01:58;;;;;;;17.23;15.53;;;;;;;;;;5095879;28;20431;-10
2021/03/01 01:04:27;;;;;;;17.00;15.30;;;;;;;;;;5097040;28;20535;-10
2021/03/01 01:06:55;;;;;;;15.83;14.53;;;;;;;;;;5095473;28;20443;-10
2021/03/01 01:09:23;;;;;;;18.00;16.27;;;;;;;;;;5099369;28;20749;-10
2021/03/01 01:11:51;;;;;;;17.37;15.30;;;;;;;;;;5115278;28;20534;-11
2021/03/01 01:14:19;;;;;;;16.63;14.97;;;;;;;;;;5116414;28;20614;-11
2021/03/01 01:16:47;;;;;;;16.33;14.83;;;;;;;;;;5116900;28;20430;-11
2021/03/01 01:19:15;;;;;;;16.20;14.63;;;;;;;;;;5117043;28;21248;-10
2021/03/01 01:21:43;;;;;;;15.20;13.27;;;;;;;;;;5116541;28;20442;-10
2021/03/01 01:24:11;;;;;;;15.27;13.87;;;;;;;;;;5116883;28;20731;-12
2021/03/01 01:26:39;;;;;;;15.20;13.63;;;;;;;;;;5115841;28;20469;-11
2021/03/01 01:29:08;;;;;;;16.80;15.20;;;;;;;;;;5113010;28;20498;-11
2021/03/01 01:31:39;;;;;;;15.57;14.10;;;;;;;;;;5115125;28;20443;-11
2021/03/01 01:34:09;;;;;;;15.90;14.33;;;;;;;;;;5116509;28;20485;-11
2021/03/01 01:36:43;;;;;;;16.47;14.70;;;;;;;;;;5116461;28;20492;-10
2021/03/01 01:39:10;;;;;;;18.30;16.43;;;;;;;;;;5116149;28;20466;-11
2021/03/01 01:41:39;;;;;;;17.17;15.47;;;;;;;;;;5116243;28;20435;-11
2021/03/01 01:44:06;;;;;;;16.60;15.10;;;;;;;;;;5115056;28;20993;-11
2021/03/01 01:46:35;;;;;;;14.63;13.30;;;;;;;;;;5114645;28;20427;-11
2021/03/01 01:49:02;;;;;;;17.30;15.50;;;;;;;;;;5115445;28;20454;-11
2021/03/01 01:51:31;;;;;;;15.03;13.77;;;;;;;;;;5114628;28;20536;-12
2021/03/01 01:54:02;;;;;;;15.87;14.37;;;;;;;;;;5113007;28;20554;-12
2021/03/01 01:56:29;;;;;;;15.83;14.17;;;;;;;;;;5114881;28;20453;-10
2021/03/01 01:58:57;;;;;;;15.20;13.63;;;;;;;;;;5114792;28;20522;-11
2021/03/01 02:01:26;;;;;;;16.37;14.70;;;;;;;;;;5114743;28;20938;-11
2021/03/01 02:03:59;;;;;;;15.90;14.37;;;;;;;;;;5115048;28;20522;-10
2021/03/01 02:06:42;;;;;;;16.27;14.80;;;;;;;;;;5114664;28;20439;-12
2021/03/01 02:09:19;;;;;;;15.40;14.00;;;;;;;;;;5113108;28;20557;-10
2021/03/01 02:11:54;;;;;;;15.50;13.87;;;;;;;;;;5114657;28;20441;-12
2021/03/01 02:14:25;;;;;;;19.07;16.20;;;;;;;;;;5116106;28;20494;-11
2021/03/01 02:16:53;;;;;;;16.50;14.80;;;;;;;;;;5115293;28;20437;-11
2021/03/01 02:19:22;;;;;;;17.17;15.37;;;;;;;;;;5114720;28;20446;-12
2021/03/01 02:21:51;;;;;;;15.87;14.37;;;;;;;;;;5114285;28;20709;-11
2021/03/01 02:24:25;;;;;;;16.00;14.60;;;;;;;;;;5114427;28;20454;-11
2021/03/01 02:26:55;;;;;;;15.40;13.90;;;;;;;;;;5113373;28;20443;-12
2021/03/01 02:29:24;;;;;;;17.83;16.17;;;;;;;;;;5114725;28;20482;-11
2021/03/01 02:31:54;;;;;;;15.17;13.77;;;;;;;;;;5114235;28;21106;-12
2021/03/01 02:34:23;;;;;;;15.67;14.17;;;;;;;;;;5112840;28;20590;-11
2021/03/01 02:36:56;;;;;;;19.70;14.53;;;;;;;;;;5113806;28;20438;-12
2021/03/01 02:39:25;;;;;;;15.07;13.50;;;;;;;;;;5114565;28;20496;-11
2021/03/01 02:41:55;;;;;;;14.80;13.50;;;;;;;;;;5095913;28;20470;-11
2021/03/01 02:44:22;;;;;;;15.90;14.30;;;;;;;;;;5093741;28;20738;-10
2021/03/01 02:46:51;;;;;;;15.97;14.57;;;;;;;;;;5075259;28;20849;-12
2021/03/01 02:49:19;;;;;;;14.77;13.37;;;;;;;;;;5112146;28;20470;-11
2021/03/01 02:51:49;;;;;;;15.23;13.67;;;;;;;;;;5113761;28;20427;-12
2021/03/01 02:54:22;;;;;;;16.57;14.87;;;;;;;;;;5099361;28;20463;-11
2021/03/01 02:56:50;;;;;;;14.40;13.10;;;;;;;;;;5099425;28;20474;-11
2021/03/01 02:59:19;;;;;;;14.03;12.63;;;;;;;;;;5119067;28;20458;-12
2021/03/01 03:01:49;;;;;;;14.43;13.23;;;;;;;;;;5118619;28;20745;-12
2021/03/01 03:04:17;;;;;;;13.47;12.27;;;;;;;;;;5119354;28;20519;-11
2021/03/01 03:06:46;;;;;;;14.53;13.13;;;;;;;;;;5118122;28;20563;-12
2021/03/01 03:09:14;;;;;;;15.97;13.20;;;;;;;;;;5118163;28;20439;-12
2021/03/01 03:11:47;;;;;;;14.03;12.83;;;;;;;;;;5118864;28;21135;-11
2021/03/01 03:14:21;;;;;;;14.50;13.23;;;;;;;;;;5113723;28;20525;-12
2021/03/01 03:16:52;;;;;;;14.70;13.37;;;;;;;;;;5118106;28;20488;-11
2021/03/01 03:19:21;;;;;;;14.10;12.70;;;;;;;;;;5118161;28;20698;-11
2021/03/01 03:21:52;;;;;;;15.47;13.30;;;;;;;;;;5118297;28;20745;-11
2021/03/01 03:24:19;;;;;;;14.03;12.93;;;;;;;;;;5117435;27;20434;-10
2021/03/01 03:26:52;;;;;;;15.13;13.70;;;;;;;;;;5118086;28;20781;-10
2021/03/01 03:29:22;;;;;;;15.33;13.83;;;;;;;;;;5117514;28;20454;-10
2021/03/01 03:31:51;;;;;;;17.53;14.13;;;;;;;;;;5117269;28;20435;-11
2021/03/01 03:34:22;;;;;;;15.93;14.33;;;;;;;;;;5117063;28;20467;-11
2021/03/01 03:36:54;;;;;;;15.33;14.00;;;;;;;;;;5102483;27;20467;-11
2021/03/01 03:39:23;;;;;;;16.10;14.30;;;;;;;;;;5098431;28;20775;-11
2021/03/01 03:41:53;;;;;;;14.67;13.33;;;;;;;;;;5115004;28;20439;-12
2021/03/01 03:44:21;;;;;;;15.03;13.60;;;;;;;;;;5117076;28;20450;-11
2021/03/01 03:46:49;;;;;;;14.10;12.57;;;;;;;;;;5116578;28;20450;-11
2021/03/01 03:49:17;;;;;;;14.00;12.90;;;;;;;;;;5118376;28;20485;-11
2021/03/01 03:51:45;;;;;;;13.17;12.07;;;;;;;;;;5118830;27;20478;-11
2021/03/01 03:54:16;;;;;;;14.77;13.47;;;;;;;;;;5115550;28;20482;-11
2021/03/01 03:56:48;;;;;;;13.37;12.00;;;;;;;;;;5117585;28;20527;-10
2021/03/01 03:59:18;;;;;;;12.97;11.70;;;;;;;;;;5118252;28;21149;-10
2021/03/01 04:01:50;;;;;;;14.30;12.87;;;;;;;;;;5117437;28;20950;-12
2021/03/01 04:04:19;;;;;;;15.77;14.20;;;;;;;;;;5118109;28;20520;-11
2021/03/01 04:06:48;;;;;;;13.97;12.80;;;;;;;;;;5117359;28;20435;-12
2021/03/01 04:09:19;;;;;;;15.27;13.83;;;;;;;;;;5117330;28;20471;-12
2021/03/01 04:11:48;;;;;;;15.63;14.00;;;;;;;;;;5116638;28;20463;-12
2021/03/01 04:14:17;;;;;;;14.70;13.40;;;;;;;;;;5115887;27;20475;-12
2021/03/01 04:16:46;;;;;;;15.40;13.80;;;;;;;;;;5116819;28;20529;-11
2021/03/01 04:19:16;;;;;;;14.90;13.60;;;;;;;;;;5113920;28;21225;-10
2021/03/01 04:21:45;;;;;;;15.10;13.90;;;;;;;;;;5116087;28;20463;-12
2021/03/01 04:24:14;;;;;;;14.57;13.40;;;;;;;;;;5097745;28;20512;-12
2021/03/01 04:26:43;;;;;;;15.17;13.77;;;;;;;;;;5116072;28;20443;-12
2021/03/01 04:29:11;;;;;;;16.50;15.10;;;;;;;;;;5116589;28;20459;-11
2021/03/01 04:31:39;;;;;;;14.80;13.30;;;;;;;;;;5115191;28;20987;-13
2021/03/01 04:34:08;;;;;;;14.90;13.43;;;;;;;;;;5115344;28;20590;-11
2021/03/01 04:36:36;;;;;;;15.60;14.27;;;;;;;;;;5116618;28;20865;-10
2021/03/01 04:39:04;;;;;;;15.10;14.00;;;;;;;;;;5116331;28;20442;-11
2021/03/01 04:41:33;;;;;;;17.37;15.50;;;;;;;;;;5081831;28;20571;-12
2021/03/01 04:44:01;;;;;;;14.97;13.73;;;;;;;;;;5109371;28;20490;-11
2021/03/01 04:46:30;;;;;;;15.47;14.07;;;;;;;;;;5114178;28;20423;-12
2021/03/01 04:49:00;;;;;;;16.40;15.00;;;;;;;;;;5113783;28;20439;-11
2021/03/01 04:51:29;;;;;;;16.47;14.87;;;;;;;;;;5114681;28;20538;-12
2021/03/01 04:53:57;;;;;;;15.63;14.33;;;;;;;;;;5113692;28;20474;-11
2021/03/01 04:56:25;;;;;;;15.20;13.80;;;;;;;;;;5114836;28;20535;-11
2021/03/01 04:58:54;;;;;;;16.27;14.90;;;;;;;;;;5114510;28;20518;-12
2021/03/01 05:01:22;;;;;;;15.80;14.50;;;;;;;;;;5112020;27;20441;-11
2021/03/01 05:03:51;;;;;;;16.90;15.17;;;;;;;;;;5112322;28;20442;-10
2021/03/01 05:06:19;;;;;;;15.13;13.73;;;;;;;;;;5111085;28;20459;-11
2021/03/01 05:08:48;;;;;;;15.87;14.57;;;;;;;;;;5109569;28;20857;-11
2021/03/01 05:11:25;;;;;;;15.43;13.80;;;;;;;;;;5113450;28;20958;-10
2021/03/01 05:13:54;;;;;;;16.80;15.20;;;;;;;;;;5112139;28;20973;-11
2021/03/01 05:16:23;;;;;;;16.03;14.60;;;;;;;;;;5113621;28;20535;-10
2021/03/01 05:18:53;;;;;;;15.40;13.77;;;;;;;;;;5112904;28;20439;-11
2021/03/01 05:21:21;;;;;;;16.43;15.03;;;;;;;;;;5112910;28;20485;-12
2021/03/01 05:23:49;;;;;;;16.37;15.00;;;;;;;;;;5111170;28;20561;-11
2021/03/01 05:26:17;;;;;;;15.77;14.47;;;;;;;;;;5112354;28;20434;-11
2021/03/01 05:28:46;;;;;;;17.27;15.40;;;;;;;;;;5112290;28;20442;-11
2021/03/01 05:31:14;;;;;;;16.23;14.80;;;;;;;;;;5112038;28;20761;-11
2021/03/01 05:33:43;;;;;;;17.00;15.50;;;;;;;;;;5111610;28;20468;-11
2021/03/01 05:36:11;;;;;;;16.50;14.47;;;;;;;;;;5109342;28;20596;-11
2021/03/01 05:38:39;;;;;;;18.57;16.87;;;;;;;;;;5109567;28;20450;-10
2021/03/01 05:41:10;;;;;;;15.87;14.40;;;;;;;;;;5097748;28;20490;-11
2021/03/01 05:43:38;;;;;;;16.87;14.87;;;;;;;;;;5090003;28;20477;-13
2021/03/01 05:46:08;;;;;;;16.80;15.20;;;;;;;;;;5088322;28;20810;-11
2021/03/01 05:48:36;;;;;;;17.23;15.30;;;;;;;;;;5091311;28;20447;-11
2021/03/01 05:51:04;;;;;;;16.43;14.93;;;;;;;;;;5088281;28;20522;-11
2021/03/01 05:53:35;;;;;;;16.43;14.70;;;;;;;;;;5089057;28;20444;-11
2021/03/01 05:56:03;;;;;;;15.27;13.87;;;;;;;;;;5101653;28;20496;-11
2021/03/01 05:58:32;;;;;;;17.13;15.57;;;;;;;;;;5109094;28;20903;-10
2021/03/01 06:01:01;;;;;;;17.43;14.60;;;;;;;;;;5107745;28;20443;-11
2021/03/01 06:03:30;;;;;;;14.60;13.33;;;;;;;;;;5107934;28;20542;-11
2021/03/01 06:05:57;;;;;;;16.73;15.07;;;;;;;;;;5104611;28;20801;-10
2021/03/01 06:08:28;;;;;;;14.27;12.97;;;;;;;;;;5104427;28;20466;-11
2021/03/01 06:10:58;;;;;;;14.20;12.80;;;;;;;;;;5104831;28;20494;-11
2021/03/01 06:13:26;;;;;;;14.67;13.27;;;;;;;;;;5101746;28;20442;-12
2021/03/01 06:15:56;;;;;;;18.73;14.13;;;;;;;;;;5101411;28;20455;-11
2021/03/01 06:18:24;;;;;;;13.87;12.67;;;;;;;;;;5100360;28;20549;-13
2021/03/01 06:20:53;;;;;;;15.87;14.27;;;;;;;;;;5095171;28;20601;-11
2021/03/01 06:23:31;;;;;;;13.60;12.40;;;;;;;;;;5099591;28;20533;-11
2021/03/01 06:26:15;;;;;;;15.20;13.80;;;;;;;;;;5100631;28;20798;-11
2021/03/01 06:28:57;;;;;;;15.40;13.90;;;;;;;;;;5100502;28;21328;-12
2021/03/01 06:31:39;;;;;;;14.40;12.77;;;;;;;;;;5083677;28;20520;-12
2021/03/01 06:34:33;;;;;;;15.90;14.30;;;;;;;;;;5096632;28;20473;-11
2021/03/01 06:37:02;;;;;;;14.63;13.13;;;;;;;;;;5096977;28;20446;-11
2021/03/01 06:39:31;;;;;;;15.07;13.53;;;;;;;;;;5100628;28;20462;-12
2021/03/01 06:41:59;;;;;;;14.93;13.50;;;;;;;;;;5079281;28;20464;-12
2021/03/01 06:44:34;;;;;;;14.13;12.80;;;;;;;;;;5078199;28;20497;-12
2021/03/01 06:47:03;;;;;;;16.50;13.27;;;;;;;;;;5094830;28;20454;-11
2021/03/01 06:49:35;;;;;;;14.97;12.90;;;;;;;;;;5095009;28;20445;-12
2021/03/01 06:52:32;;;;;;;15.60;12.83;;;;;;;;;;5093167;28;20447;-11
2021/03/01 06:55:09;;;;;;;14.30;12.97;;;;;;;;;;5108584;28;21032;-11
2021/03/01 06:57:38;;;;;;;16.63;14.80;;;;;;;;;;5093446;28;20426;-11
2021/03/01 07:00:07;;;;;;;14.83;13.53;;;;;;;;;;5093550;28;20635;-11
2021/03/01 07:02:39;;;;;;;16.13;14.40;;;;;;;;;;5086524;28;20508;-11
2021/03/01 07:05:08;;;;;;;15.50;13.90;;;;;;;;;;5089281;28;20435;-12
2021/03/01 07:07:35;;;;;;;15.53;13.97;;;;;;;;;;5089195;28;20462;-11
2021/03/01 07:10:03;;;;;;;16.83;15.17;;;;;;;;;;5084804;28;20498;-11
2021/03/01 07:12:37;;;;;;;17.13;15.53;;;;;;;;;;5084055;28;20542;-11
2021/03/01 07:15:06;;;;;;;18.17;16.37;;;;;;;;;;5083140;28;20531;-11
2021/03/01 07:17:37;;;;;;;16.83;15.30;;;;;;;;;;5066750;28;20505;-10
2021/03/01 07:20:06;;;;;;;17.37;15.57;;;;;;;;;;5061647;28;20440;-11
2021/03/01 07:22:35;;;;;;;17.30;15.67;;;;;;;;;;5064724;28;20428;-11
2021/03/01 07:25:03;;;;;;;18.13;16.30;;;;;;;;;;5084894;28;20519;-11
2021/03/01 07:27:31;;;;;;;18.40;16.43;;;;;;;;;;5091366;28;20893;-10
2021/03/01 07:29:58;;;;;;;19.10;17.03;;;;;;;;;;5061908;28;20435;-12
2021/03/01 07:32:28;;;;;;;18.27;16.37;;;;;;;;;;5077957;28;20474;-10
2021/03/01 07:34:56;;;;;;;18.67;16.70;;;;;;;;;;5075785;28;20625;-12
2021/03/01 07:37:29;;;;;;;19.60;16.67;;;;;;;;;;5071343;28;20439;-11
2021/03/01 07:39:56;;;;;;;19.37;17.47;;;;;;;;;;5082547;28;20434;-10
2021/03/01 07:42:27;;;;;;;19.07;16.97;;;;;;;;;;5082479;28;20450;-12
2021/03/01 07:44:58;;;;;;;20.00;18.13;;;;;;;;;;5086323;28;20454;-13
2021/03/01 07:47:30;;;;;;;27.57;22.90;;;;;;;;;;5081006;28;20561;-10
2021/03/01 07:49:58;;;;;;;24.30;20.30;;;;;;;;;;5074767;28;20901;-12
2021/03/01 07:52:37;;;;;;;23.93;20.67;;;;;;;;;;5083999;28;20562;-13
2021/03/01 07:55:23;;;;;;;33.33;24.40;;;;;;;;;;5066165;28;20493;-12
2021/03/01 07:58:03;;;;;;;27.03;22.40;;;;;;;;;;5056869;28;20452;-12
2021/03/01 08:00:33;;;;;;;28.83;22.60;;;;;;;;;;5064601;28;20486;-12
2021/03/01 08:03:02;;;;;;;29.90;23.70;;;;;;;;;;5077311;28;20435;-12
2021/03/01 08:05:33;;;;;;;32.77;24.70;;;;;;;;;;5076564;28;20472;-11
2021/03/01 08:08:05;;;;;;;25.53;19.20;;;;;;;;;;5052542;28;21411;-14
2021/03/01 08:10:45;;;;;;;16.97;15.23;;;;;;;;;;5053586;28;20431;-10
2021/03/01 08:13:13;;;;;;;17.77;15.50;;;;;;;;;;5074277;28;20430;-11
2021/03/01 08:15:42;;;;;;;18.17;16.27;;;;;;;;;;5077712;28;20501;-11
2021/03/01 08:18:13;;;;;;;18.10;16.23;;;;;;;;;;5074564;28;20439;-12
2021/03/01 08:20:54;;;;;;;17.17;15.47;;;;;;;;;;5060935;28;20509;-10
2021/03/01 08:23:37;;;;;;;16.30;14.70;;;;;;;;;;5061745;28;20575;-11
2021/03/01 08:26:13;;;;;;;16.80;15.00;;;;;;;;;;5056614;28;20451;-11
2021/03/01 08:28:51;;;;;;;17.33;15.70;;;;;;;;;;5057015;28;21074;-13
2021/03/01 08:31:23;;;;;;;16.13;14.73;;;;;;;;;;5060108;28;20508;-11
2021/03/01 08:33:52;;;;;;;16.63;14.83;;;;;;;;;;5058596;28;20435;-11
2021/03/01 08:36:20;;;;;;;17.03;15.30;;;;;;;;;;5073775;28;20611;-10
2021/03/01 08:38:51;;;;;;;19.40;15.20;;;;;;;;;;5075135;28;21367;-12
2021/03/01 08:41:19;;;;;;;17.03;15.33;;;;;;;;;;5080716;28;20443;-10
2021/03/01 08:43:52;;;;;;;17.53;15.83;;;;;;;;;;5077494;28;20470;-11
2021/03/01 08:46:24;;;;;;;19.27;17.30;;;;;;;;;;5065559;28;21822;-11
2021/03/01 08:48:54;;;;;;;17.70;15.90;;;;;;;;;;5078390;28;20867;-11
2021/03/01 08:51:22;;;;;;;18.00;16.10;;;;;;;;;;5078192;28;20449;-9
2021/03/01 08:53:53;;;;;;;17.80;15.43;;;;;;;;;;5062436;28;20479;-10
2021/03/01 08:56:21;;;;;;;18.80;15.30;;;;;;;;;;5049562;28;21035;-11
2021/03/01 08:58:49;;;;;;;16.43;14.67;;;;;;;;;;5051838;28;20977;-11
2021/03/01 09:01:16;;;;;;;16.87;15.07;;;;;;;;;;5049660;28;20470;-10
2021/03/01 09:03:45;;;;;;;18.93;16.00;;;;;;;;;;5050227;28;21334;-10
2021/03/01 09:06:15;;;;;;;18.13;14.90;;;;;;;;;;5047768;28;21584;-11
2021/03/01 09:08:43;;;;;;;15.43;14.13;;;;;;;;;;5052833;28;21020;-10
2021/03/01 09:11:14;;;;;;;17.50;16.00;;;;;;;;;;5051138;28;20436;-12
2021/03/01 09:13:44;;;;;;;17.40;15.67;;;;;;;;;;5066109;28;20878;-10
2021/03/01 09:16:13;;;;;;;19.17;15.80;;;;;;;;;;5032098;28;20583;-11
2021/03/01 09:18:44;;;;;;;16.43;14.90;;;;;;;;;;5052869;28;20780;-11
2021/03/01 09:21:14;;;;;;;17.00;15.40;;;;;;;;;;5048195;28;20517;-11
2021/03/01 09:23:45;;;;;;;16.53;14.93;;;;;;;;;;5052393;28;21080;-12
2021/03/01 09:26:22;;;;;;;15.40;13.97;;;;;;;;;;5054798;28;20956;-11
2021/03/01 09:28:50;;;;;;;16.10;14.60;;;;;;;;;;5055940;28;20440;-10
2021/03/01 09:31:18;;;;;;;15.80;13.20;;;;;;;;;;5053490;28;20452;-12
2021/03/01 09:33:46;;;;;;;14.60;13.30;;;;;;;;;;5050392;28;20471;-11
2021/03/01 09:36:15;;;;;;;14.70;13.20;;;;;;;;;;5053391;28;20558;-12
2021/03/01 09:38:44;;;;;;;11.50;10.50;;;;;;;;;;5053842;28;20559;-10
2021/03/01 09:41:15;;;;;;;11.33;10.43;;;;;;;;;;5074070;28;20913;-10
2021/03/01 09:43:48;;;;;;;10.67;9.93;;;;;;;;;;5071624;28;20542;-10
2021/03/01 09:46:17;;;;;;;10.33;9.70;;;;;;;;;;5062113;28;20470;-10
2021/03/01 09:48:46;;;;;;;10.80;10.17;;;;;;;;;;5048551;28;20779;-10
2021/03/01 09:51:14;;;;;;;11.37;10.47;;;;;;;;;;5051630;28;20448;-12
2021/03/01 09:53:43;;;;;;;10.07;9.37;;;;;;;;;;5054304;28;20432;-11
2021/03/01 09:56:10;;;;;;;11.70;10.73;;;;;;;;;;5053648;28;20483;-12
2021/03/01 09:58:40;;;;;;;11.20;10.37;;;;;;;;;;5057407;27;20510;-12
2021/03/01 10:01:11;;;;;;;10.87;10.07;;;;;;;;;;5073889;28;20435;-12
2021/03/01 10:03:41;;;;;;;10.73;9.83;;;;;;;;;;5075880;28;20442;-12
2021/03/01 10:06:10;;;;;;;10.47;9.70;;;;;;;;;;5077396;27;20434;-10
2021/03/01 10:08:39;;;;;;;9.80;9.20;;;;;;;;;;5075994;28;20497;-12
2021/03/01 10:11:20;;;;;;;11.00;10.20;;;;;;;;;;5072291;28;21063;-10
2021/03/01 10:13:48;;;;;;;10.97;10.17;;;;;;;;;;5078134;28;20490;-10
2021/03/01 10:16:29;;;;;;;10.43;9.63;;;;;;;;;;5069066;28;20601;-11
2021/03/01 10:19:13;;;;;;;11.53;10.70;;;;;;;;;;5076295;28;20427;-11
2021/03/01 10:21:41;;;;;;;11.07;9.97;;;;;;;;;;5073312;28;20467;-12
2021/03/01 10:24:10;;;;;;;10.73;10.03;;;;;;;;;;5076853;28;20967;-11
2021/03/01 10:26:53;;;;;;;10.23;9.43;;;;;;;;;;5075072;28;20550;-10
2021/03/01 10:29:30;;;;;;;10.97;10.07;;;;;;;;;;5079637;28;20743;-11
2021/03/01 10:32:00;;;;;;;10.90;10.07;;;;;;;;;;5075606;28;20512;-11
2021/03/01 10:34:31;;;;;;;11.03;10.33;;;;;;;;;;5077582;28;20755;-12
2021/03/01 10:37:01;;;;;;;11.40;10.50;;;;;;;;;;5077216;28;20506;-12
2021/03/01 10:39:29;;;;;;;9.90;9.20;;;;;;;;;;5079685;28;20462;-12
2021/03/01 10:41:59;;;;;;;11.07;10.30;;;;;;;;;;5078409;28;20496;-12
2021/03/01 10:44:28;;;;;;;11.17;10.43;;;;;;;;;;5081749;28;20437;-12
2021/03/01 10:46:55;;;;;;;11.40;10.37;;;;;;;;;;5077501;28;20450;-12
2021/03/01 10:49:26;;;;;;;10.30;9.70;;;;;;;;;;5076983;28;20497;-12
2021/03/01 10:51:56;;;;;;;9.10;8.60;;;;;;;;;;5076900;28;20450;-11
2021/03/01 10:54:24;;;;;;;9.90;9.20;;;;;;;;;;5081320;28;20924;-12
2021/03/01 10:56:56;;;;;;;8.93;8.33;;;;;;;;;;5071325;28;20473;-13
2021/03/01 10:59:24;;;;;;;10.70;9.90;;;;;;;;;;5077132;28;20454;-12
2021/03/01 11:01:52;;;;;;;11.10;10.30;;;;;;;;;;5068986;28;20441;-13
2021/03/01 11:04:20;;;;;;;11.87;11.07;;;;;;;;;;5074130;28;20466;-12
2021/03/01 11:06:49;;;;;;;11.13;10.33;;;;;;;;;;5059051;28;20465;-13
2021/03/01 11:09:18;;;;;;;10.30;9.60;;;;;;;;;;5056551;28;20486;-11
2021/03/01 11:11:52;;;;;;;9.67;9.07;;;;;;;;;;5075850;28;20466;-12
2021/03/01 11:14:20;;;;;;;10.70;9.70;;;;;;;;;;5089851;27;20497;-11
2021/03/01 11:16:47;;;;;;;10.10;9.57;;;;;;;;;;5093614;27;20438;-11
2021/03/01 11:19:16;;;;;;;10.07;9.37;;;;;;;;;;5098828;27;21225;-12
2021/03/01 11:21:44;;;;;;;10.63;9.87;;;;;;;;;;5104747;27;20474;-11
2021/03/01 11:24:15;;;;;;;10.57;9.90;;;;;;;;;;5095642;27;20787;-11
2021/03/01 11:26:44;;;;;;;10.97;10.10;;;;;;;;;;5084589;27;21078;-12
2021/03/01 11:29:11;;;;;;;12.13;11.20;;;;;;;;;;5099915;27;20494;-12
2021/03/01 11:31:39;;;;;;;10.70;9.80;;;;;;;;;;5098139;27;20434;-11
2021/03/01 11:34:08;;;;;;;10.77;9.93;;;;;;;;;;5104998;27;20490;-12
2021/03/01 11:36:35;;;;;;;10.27;9.37;;;;;;;;;;5101660;27;20546;-11
2021/03/01 11:39:04;;;;;;;11.63;10.83;;;;;;;;;;5081282;27;20495;-11
2021/03/01 11:41:33;;;;;;;10.83;10.10;;;;;;;;;;5056839;28;20432;-12
2021/03/01 11:44:01;;;;;;;10.03;9.50;;;;;;;;;;5065922;28;20484;-12
2021/03/01 11:46:29;;;;;;;9.67;8.97;;;;;;;;;;5056073;28;20775;-12
2021/03/01 11:48:58;;;;;;;10.50;9.63;;;;;;;;;;5049124;28;20586;-12
2021/03/01 11:51:26;;;;;;;10.23;9.60;;;;;;;;;;5037626;28;20449;-11
2021/03/01 11:53:53;;;;;;;9.40;8.60;;;;;;;;;;5041931;28;20460;-12
2021/03/01 11:56:21;;;;;;;8.90;8.30;;;;;;;;;;5036747;28;20472;-11
2021/03/01 11:58:54;;;;;;;10.03;9.30;;;;;;;;;;5040860;28;20457;-12
2021/03/01 12:01:21;;;;;;;8.80;8.30;;;;;;;;;;5043455;28;20464;-12
2021/03/01 12:03:51;;;;;;;9.03;8.53;;;;;;;;;;5049382;28;20985;-13
2021/03/01 12:06:19;;;;;;;9.23;8.73;;;;;;;;;;5080402;28;20561;-12
2021/03/01 12:08:48;;;;;;;9.80;8.97;;;;;;;;;;5082489;28;20485;-12
2021/03/01 12:11:17;;;;;;;9.47;8.87;;;;;;;;;;5082299;28;20453;-11
2021/03/01 12:13:45;;;;;;;10.00;9.40;;;;;;;;;;5082746;28;20494;-10
2021/03/01 12:16:15;;;;;;;9.50;9.00;;;;;;;;;;5075895;28;21176;-12
2021/03/01 12:18:43;;;;;;;10.70;10.10;;;;;;;;;;5080213;28;20947;-12
2021/03/01 12:21:12;;;;;;;10.50;9.90;;;;;;;;;;5080589;28;20821;-12
2021/03/01 12:23:41;;;;;;;9.60;8.90;;;;;;;;;;5111410;28;20470;-13
2021/03/01 12:26:08;;;;;;;8.60;8.17;;;;;;;;;;5116561;28;20527;-13
2021/03/01 12:28:37;;;;;;;9.27;8.77;;;;;;;;;;5113127;28;20485;-14
2021/03/01 12:31:06;;;;;;;20.63;18.63;;;;;;;;;;5119528;28;20442;-13
2021/03/01 12:33:38;;;;;;;9.70;9.10;;;;;;;;;;5116771;28;20428;-13
2021/03/01 12:36:12;;;;;;;8.00;7.50;;;;;;;;;;5099998;28;20462;-13
2021/03/01 12:38:40;;;;;;;9.03;8.53;;;;;;;;;;5100057;28;20449;-12
2021/03/01 12:41:09;;;;;;;9.00;8.40;;;;;;;;;;5098455;28;21024;-12
2021/03/01 12:43:36;;;;;;;9.03;8.43;;;;;;;;;;5097872;28;20657;-13
2021/03/01 12:46:04;;;;;;;9.13;8.53;;;;;;;;;;5112067;28;20431;-13
2021/03/01 12:48:37;;;;;;;8.80;8.30;;;;;;;;;;5106172;28;20444;-11
2021/03/01 12:51:18;;;;;;;8.80;8.40;;;;;;;;;;5092907;28;20590;-13
2021/03/01 12:53:46;;;;;;;9.30;8.53;;;;;;;;;;5098871;28;20558;-14
2021/03/01 12:56:14;;;;;;;9.77;9.13;;;;;;;;;;5107822;28;20460;-13
2021/03/01 12:58:43;;;;;;;9.33;8.93;;;;;;;;;;5094401;28;20432;-13
2021/03/01 13:01:14;;;;;;;10.03;9.47;;;;;;;;;;5080617;28;20696;-14
2021/03/01 13:03:44;;;;;;;8.30;7.80;;;;;;;;;;5095634;28;20436;-13
2021/03/01 13:06:15;;;;;;;8.70;8.30;;;;;;;;;;5079221;28;20432;-13
2021/03/01 13:08:43;;;;;;;8.50;8.10;;;;;;;;;;5087104;28;20647;-14
2021/03/01 13:11:12;;;;;;;9.17;8.73;;;;;;;;;;5115886;28;20450;-14
2021/03/01 13:13:40;;;;;;;8.37;7.97;;;;;;;;;;5114659;28;20442;-14
2021/03/01 13:16:07;;;;;;;8.63;8.20;;;;;;;;;;5115553;28;20479;-14
2021/03/01 13:18:35;;;;;;;9.90;9.20;;;;;;;;;;5088540;28;20492;-13
2021/03/01 13:21:05;;;;;;;9.07;8.47;;;;;;;;;;5076464;28;20938;-14
2021/03/01 13:23:33;;;;;;;9.03;8.60;;;;;;;;;;5071606;28;20464;-13
2021/03/01 13:26:08;;;;;;;8.83;8.43;;;;;;;;;;5070177;28;20437;-14
2021/03/01 13:28:36;;;;;;;8.60;8.10;;;;;;;;;;5054321;28;20486;-13
2021/03/01 13:31:04;;;;;;;8.47;8.00;;;;;;;;;;5074553;28;20449;-13
2021/03/01 13:33:31;;;;;;;7.80;7.40;;;;;;;;;;5074433;28;20482;-14
2021/03/01 13:36:15;;;;;;;8.53;8.03;;;;;;;;;;5074777;28;20522;-13
2021/03/01 13:38:42;;;;;;;7.70;7.40;;;;;;;;;;5070340;28;20546;-14
2021/03/01 13:41:10;;;;;;;8.43;7.90;;;;;;;;;;5053151;28;20472;-14
2021/03/01 13:43:38;;;;;;;8.50;7.90;;;;;;;;;;5054480;28;20517;-13
2021/03/01 13:46:06;;;;;;;8.50;8.10;;;;;;;;;;5074643;28;20463;-14
2021/03/01 13:48:35;;;;;;;7.90;7.50;;;;;;;;;;5074608;28;20437;-13
2021/03/01 13:51:09;;;;;;;8.70;8.20;;;;;;;;;;5074101;28;20468;-12
2021/03/01 13:53:38;;;;;;;8.80;8.30;;;;;;;;;;5071526;28;20432;-14
2021/03/01 13:56:07;;;;;;;7.63;7.30;;;;;;;;;;5071906;28;20556;-12
2021/03/01 13:58:35;;;;;;;8.93;8.43;;;;;;;;;;5054443;28;20453;-13
2021/03/01 14:01:05;;;;;;;8.20;7.60;;;;;;;;;;5070439;28;20429;-11
2021/03/01 14:03:35;;;;;;;7.10;6.80;;;;;;;;;;5034493;28;20444;-12
2021/03/01 14:06:02;;;;;;;7.67;7.33;;;;;;;;;;5020912;28;20469;-10
2021/03/01 14:08:32;;;;;;;7.43;7.03;;;;;;;;;;5014503;28;20562;-11
2021/03/01 14:11:01;;;;;;;7.00;6.60;;;;;;;;;;5042709;28;20455;-10
2021/03/01 14:13:29;;;;;;;7.70;7.20;;;;;;;;;;5058245;28;20878;-11
2021/03/01 14:15:57;;;;;;;7.33;7.03;;;;;;;;;;5057053;28;20519;-10
2021/03/01 14:18:25;;;;;;;8.17;7.70;;;;;;;;;;5057959;28;20435;-11
2021/03/01 14:20:52;;;;;;;7.90;7.50;;;;;;;;;;5060321;28;20443;-12
2021/03/01 14:23:20;;;;;;;8.10;7.70;;;;;;;;;;5038909;28;20466;-11
2021/03/01 14:25:48;;;;;;;7.67;7.37;;;;;;;;;;5060945;28;20435;-12
2021/03/01 14:28:17;;;;;;;8.10;7.70;;;;;;;;;;5046383;28;20945;-11
2021/03/01 14:30:45;;;;;;;9.00;8.50;;;;;;;;;;5054996;28;20455;-10
2021/03/01 14:33:13;;;;;;;8.77;8.27;;;;;;;;;;5059884;28;20444;-10
2021/03/01 14:35:41;;;;;;;8.83;8.33;;;;;;;;;;5079188;28;21389;-12
2021/03/01 14:38:10;;;;;;;9.60;9.10;;;;;;;;;;5077527;28;20434;-11
2021/03/01 14:40:38;;;;;;;8.63;8.23;;;;;;;;;;5056648;28;20447;-9